sensor_id;sensor_type;location;lat;lon;timestamp;P1;durP1;ratioP1;P2;durP2;ratioP2
18090;SDS011;9172;49.948;9.208;2023-04-06T00:00:44;6.27;;;3.07;;
18090;SDS011;9172;49.948;9.208;2023-04-06T00:03:13;7.87;;;2.77;;
18090;SDS011;9172;49.948;9.208;2023-04-06T00:05:43;7.77;;;3.30;;
18090;SDS011;9172;49.948;9.208;2023-04-06T00:08:12;5.20;;;3.27;;
18090;SDS011;9172;49.948;9.208;2023-04-06T00:10:41;6.57;;;3.37;;
18090;SDS011;9172;49.948;9.208;2023-04-06T00:13:10;4.33;;;2.90;;
18090;SDS011;9172;49.948;9.208;2023-04-06T00:15:39;5.53;;;3.37;;
18090;SDS011;9172;49.948;9.208;2023-04-06T00:18:08;5.30;;;3.33;;
18090;SDS011;9172;49.948;9.208;2023-04-06T00:20:37;6.30;;;3.30;;
18090;SDS011;9172;49.948;9.208;2023-04-06T00:23:08;5.50;;;3.80;;
18090;SDS011;9172;49.948;9.208;2023-04-06T00:25:37;7.57;;;3.70;;
18090;SDS011;9172;49.948;9.208;2023-04-06T00:28:05;7.20;;;4.00;;
18090;SDS011;9172;49.948;9.208;2023-04-06T00:30:35;5.57;;;3.73;;
18090;SDS011;9172;49.948;9.208;2023-04-06T00:33:04;7.13;;;3.53;;
18090;SDS011;9172;49.948;9.208;2023-04-06T00:35:34;5.77;;;3.43;;
18090;SDS011;9172;49.948;9.208;2023-04-06T00:38:03;6.00;;;3.47;;
18090;SDS011;9172;49.948;9.208;2023-04-06T00:40:31;7.37;;;3.57;;
18090;SDS011;9172;49.948;9.208;2023-04-06T00:43:01;8.23;;;3.97;;
18090;SDS011;9172;49.948;9.208;2023-04-06T00:45:32;7.97;;;3.60;;
18090;SDS011;9172;49.948;9.208;2023-04-06T00:48:01;8.50;;;3.83;;
18090;SDS011;9172;49.948;9.208;2023-04-06T00:50:30;7.93;;;4.20;;
18090;SDS011;9172;49.948;9.208;2023-04-06T00:52:58;5.60;;;3.67;;
18090;SDS011;9172;49.948;9.208;2023-04-06T00:55:28;5.93;;;3.97;;
18090;SDS011;9172;49.948;9.208;2023-04-06T00:57:57;7.93;;;4.03;;
18090;SDS011;9172;49.948;9.208;2023-04-06T01:00:27;6.40;;;4.27;;
18090;SDS011;9172;49.948;9.208;2023-04-06T01:02:56;8.00;;;4.27;;
18090;SDS011;9172;49.948;9.208;2023-04-06T01:05:27;7.60;;;3.93;;
18090;SDS011;9172;49.948;9.208;2023-04-06T01:07:56;11.70;;;4.37;;
18090;SDS011;9172;49.948;9.208;2023-04-06T01:10:26;5.40;;;3.80;;
18090;SDS011;9172;49.948;9.208;2023-04-06T01:12:56;9.93;;;3.83;;
18090;SDS011;9172;49.948;9.208;2023-04-06T01:15:25;6.80;;;3.70;;
18090;SDS011;9172;49.948;9.208;2023-04-06T01:17:56;7.50;;;3.67;;
18090;SDS011;9172;49.948;9.208;2023-04-06T01:20:25;5.13;;;3.67;;
18090;SDS011;9172;49.948;9.208;2023-04-06T01:22:55;8.83;;;3.97;;
18090;SDS011;9172;49.948;9.208;2023-04-06T01:25:24;6.90;;;4.00;;
18090;SDS011;9172;49.948;9.208;2023-04-06T01:27:53;9.03;;;4.20;;
18090;SDS011;9172;49.948;9.208;2023-04-06T01:30:22;5.93;;;3.80;;
18090;SDS011;9172;49.948;9.208;2023-04-06T01:32:51;7.60;;;4.13;;
18090;SDS011;9172;49.948;9.208;2023-04-06T01:35:21;7.03;;;3.63;;
18090;SDS011;9172;49.948;9.208;2023-04-06T01:37:50;6.30;;;3.70;;
18090;SDS011;9172;49.948;9.208;2023-04-06T01:40:18;5.30;;;3.90;;
18090;SDS011;9172;49.948;9.208;2023-04-06T01:42:47;7.33;;;4.13;;
18090;SDS011;9172;49.948;9.208;2023-04-06T01:45:17;5.37;;;3.97;;
18090;SDS011;9172;49.948;9.208;2023-04-06T01:47:46;7.00;;;4.20;;
18090;SDS011;9172;49.948;9.208;2023-04-06T01:50:17;8.93;;;3.97;;
18090;SDS011;9172;49.948;9.208;2023-04-06T01:52:46;12.23;;;4.60;;
18090;SDS011;9172;49.948;9.208;2023-04-06T01:55:16;10.50;;;5.43;;
18090;SDS011;9172;49.948;9.208;2023-04-06T01:57:45;10.50;;;4.80;;
18090;SDS011;9172;49.948;9.208;2023-04-06T02:00:15;8.10;;;4.43;;
18090;SDS011;9172;49.948;9.208;2023-04-06T02:02:44;6.90;;;4.40;;
18090;SDS011;9172;49.948;9.208;2023-04-06T02:05:13;8.77;;;4.80;;
18090;SDS011;9172;49.948;9.208;2023-04-06T02:07:43;9.37;;;4.40;;
18090;SDS011;9172;49.948;9.208;2023-04-06T02:10:13;8.27;;;4.10;;
18090;SDS011;9172;49.948;9.208;2023-04-06T02:12:42;7.03;;;4.10;;
18090;SDS011;9172;49.948;9.208;2023-04-06T02:15:11;9.27;;;4.27;;
18090;SDS011;9172;49.948;9.208;2023-04-06T02:17:40;7.80;;;4.07;;
18090;SDS011;9172;49.948;9.208;2023-04-06T02:20:10;12.57;;;4.80;;
18090;SDS011;9172;49.948;9.208;2023-04-06T02:22:39;9.20;;;3.97;;
18090;SDS011;9172;49.948;9.208;2023-04-06T02:25:08;7.43;;;4.67;;
18090;SDS011;9172;49.948;9.208;2023-04-06T02:27:38;6.73;;;4.23;;
18090;SDS011;9172;49.948;9.208;2023-04-06T02:30:08;6.07;;;3.80;;
18090;SDS011;9172;49.948;9.208;2023-04-06T02:32:39;10.07;;;4.53;;
18090;SDS011;9172;49.948;9.208;2023-04-06T02:35:08;6.33;;;4.03;;
18090;SDS011;9172;49.948;9.208;2023-04-06T02:37:37;7.27;;;4.50;;
18090;SDS011;9172;49.948;9.208;2023-04-06T02:40:08;10.73;;;5.10;;
18090;SDS011;9172;49.948;9.208;2023-04-06T02:42:39;9.50;;;5.03;;
18090;SDS011;9172;49.948;9.208;2023-04-06T02:45:08;8.17;;;4.33;;
18090;SDS011;9172;49.948;9.208;2023-04-06T02:47:38;6.03;;;3.90;;
18090;SDS011;9172;49.948;9.208;2023-04-06T02:50:09;8.73;;;4.53;;
18090;SDS011;9172;49.948;9.208;2023-04-06T02:52:38;8.93;;;4.27;;
18090;SDS011;9172;49.948;9.208;2023-04-06T02:55:08;6.97;;;4.03;;
18090;SDS011;9172;49.948;9.208;2023-04-06T02:57:39;8.23;;;3.97;;
18090;SDS011;9172;49.948;9.208;2023-04-06T03:00:09;8.10;;;4.10;;
18090;SDS011;9172;49.948;9.208;2023-04-06T03:02:39;6.70;;;4.10;;
18090;SDS011;9172;49.948;9.208;2023-04-06T03:05:09;6.40;;;3.97;;
18090;SDS011;9172;49.948;9.208;2023-04-06T03:07:38;6.50;;;4.00;;
18090;SDS011;9172;49.948;9.208;2023-04-06T03:10:08;6.77;;;4.23;;
18090;SDS011;9172;49.948;9.208;2023-04-06T03:12:38;8.20;;;3.73;;
18090;SDS011;9172;49.948;9.208;2023-04-06T03:15:08;6.33;;;3.70;;
18090;SDS011;9172;49.948;9.208;2023-04-06T03:17:38;7.53;;;3.90;;
18090;SDS011;9172;49.948;9.208;2023-04-06T03:20:09;8.23;;;4.13;;
18090;SDS011;9172;49.948;9.208;2023-04-06T03:22:38;9.57;;;4.20;;
18090;SDS011;9172;49.948;9.208;2023-04-06T03:25:07;8.70;;;4.83;;
18090;SDS011;9172;49.948;9.208;2023-04-06T03:27:36;6.27;;;4.00;;
18090;SDS011;9172;49.948;9.208;2023-04-06T03:30:07;7.80;;;4.10;;
18090;SDS011;9172;49.948;9.208;2023-04-06T03:32:36;8.33;;;4.53;;
18090;SDS011;9172;49.948;9.208;2023-04-06T03:35:06;6.67;;;4.07;;
18090;SDS011;9172;49.948;9.208;2023-04-06T03:37:36;7.07;;;4.40;;
18090;SDS011;9172;49.948;9.208;2023-04-06T03:40:06;9.20;;;4.53;;
18090;SDS011;9172;49.948;9.208;2023-04-06T03:42:35;7.63;;;4.03;;
18090;SDS011;9172;49.948;9.208;2023-04-06T03:45:06;6.07;;;3.50;;
18090;SDS011;9172;49.948;9.208;2023-04-06T03:47:40;6.20;;;3.60;;
18090;SDS011;9172;49.948;9.208;2023-04-06T03:50:09;6.17;;;3.37;;
18090;SDS011;9172;49.948;9.208;2023-04-06T03:52:38;7.17;;;3.83;;
18090;SDS011;9172;49.948;9.208;2023-04-06T03:55:08;8.57;;;4.27;;
18090;SDS011;9172;49.948;9.208;2023-04-06T03:57:37;9.43;;;3.70;;
18090;SDS011;9172;49.948;9.208;2023-04-06T04:00:08;6.80;;;3.20;;
18090;SDS011;9172;49.948;9.208;2023-04-06T04:02:45;6.03;;;3.87;;
18090;SDS011;9172;49.948;9.208;2023-04-06T04:05:15;6.03;;;3.87;;
18090;SDS011;9172;49.948;9.208;2023-04-06T04:07:44;6.97;;;3.40;;
18090;SDS011;9172;49.948;9.208;2023-04-06T04:13:01;10.00;;;4.60;;
18090;SDS011;9172;49.948;9.208;2023-04-06T04:15:31;5.83;;;3.50;;
18090;SDS011;9172;49.948;9.208;2023-04-06T04:18:01;5.97;;;3.47;;
18090;SDS011;9172;49.948;9.208;2023-04-06T04:20:30;6.77;;;4.03;;
18090;SDS011;9172;49.948;9.208;2023-04-06T04:23:00;8.13;;;3.90;;
18090;SDS011;9172;49.948;9.208;2023-04-06T04:25:29;7.60;;;3.73;;
18090;SDS011;9172;49.948;9.208;2023-04-06T04:27:58;6.60;;;3.70;;
18090;SDS011;9172;49.948;9.208;2023-04-06T04:30:28;7.23;;;4.17;;
18090;SDS011;9172;49.948;9.208;2023-04-06T04:32:56;7.87;;;4.33;;
18090;SDS011;9172;49.948;9.208;2023-04-06T04:35:26;9.47;;;4.43;;
18090;SDS011;9172;49.948;9.208;2023-04-06T04:37:55;9.67;;;4.03;;
18090;SDS011;9172;49.948;9.208;2023-04-06T04:40:24;9.00;;;4.27;;
18090;SDS011;9172;49.948;9.208;2023-04-06T04:42:54;7.60;;;4.17;;
18090;SDS011;9172;49.948;9.208;2023-04-06T04:45:24;8.57;;;3.67;;
18090;SDS011;9172;49.948;9.208;2023-04-06T04:47:53;7.23;;;3.90;;
18090;SDS011;9172;49.948;9.208;2023-04-06T04:50:22;6.17;;;4.03;;
18090;SDS011;9172;49.948;9.208;2023-04-06T04:52:51;9.73;;;3.93;;
18090;SDS011;9172;49.948;9.208;2023-04-06T04:55:20;6.63;;;3.43;;
18090;SDS011;9172;49.948;9.208;2023-04-06T04:57:49;10.57;;;4.20;;
18090;SDS011;9172;49.948;9.208;2023-04-06T05:00:18;8.90;;;4.00;;
18090;SDS011;9172;49.948;9.208;2023-04-06T05:02:47;6.10;;;3.83;;
18090;SDS011;9172;49.948;9.208;2023-04-06T05:05:16;7.63;;;4.43;;
18090;SDS011;9172;49.948;9.208;2023-04-06T05:07:45;6.10;;;4.20;;
18090;SDS011;9172;49.948;9.208;2023-04-06T05:10:14;9.23;;;4.70;;
18090;SDS011;9172;49.948;9.208;2023-04-06T05:12:43;7.30;;;3.97;;
18090;SDS011;9172;49.948;9.208;2023-04-06T05:15:13;8.53;;;4.60;;
18090;SDS011;9172;49.948;9.208;2023-04-06T05:17:43;7.60;;;4.10;;
18090;SDS011;9172;49.948;9.208;2023-04-06T05:20:12;8.73;;;4.17;;
18090;SDS011;9172;49.948;9.208;2023-04-06T05:22:41;7.30;;;4.43;;
18090;SDS011;9172;49.948;9.208;2023-04-06T05:25:10;6.47;;;4.27;;
18090;SDS011;9172;49.948;9.208;2023-04-06T05:27:39;6.30;;;4.13;;
18090;SDS011;9172;49.948;9.208;2023-04-06T05:30:09;6.40;;;4.00;;
18090;SDS011;9172;49.948;9.208;2023-04-06T05:32:39;6.43;;;4.50;;
18090;SDS011;9172;49.948;9.208;2023-04-06T05:35:10;6.73;;;3.80;;
18090;SDS011;9172;49.948;9.208;2023-04-06T05:37:39;7.33;;;3.73;;
18090;SDS011;9172;49.948;9.208;2023-04-06T05:40:09;10.43;;;4.50;;
18090;SDS011;9172;49.948;9.208;2023-04-06T05:42:38;8.93;;;4.03;;
18090;SDS011;9172;49.948;9.208;2023-04-06T05:45:09;10.23;;;4.20;;
18090;SDS011;9172;49.948;9.208;2023-04-06T05:47:40;9.90;;;5.23;;
18090;SDS011;9172;49.948;9.208;2023-04-06T05:50:10;9.03;;;4.93;;
18090;SDS011;9172;49.948;9.208;2023-04-06T05:52:39;7.87;;;4.10;;
18090;SDS011;9172;49.948;9.208;2023-04-06T05:55:10;9.90;;;4.43;;
18090;SDS011;9172;49.948;9.208;2023-04-06T05:57:39;7.53;;;4.70;;
18090;SDS011;9172;49.948;9.208;2023-04-06T06:00:09;7.60;;;4.53;;
18090;SDS011;9172;49.948;9.208;2023-04-06T06:02:41;10.27;;;4.80;;
18090;SDS011;9172;49.948;9.208;2023-04-06T06:05:10;8.40;;;5.13;;
18090;SDS011;9172;49.948;9.208;2023-04-06T06:07:39;11.73;;;5.47;;
18090;SDS011;9172;49.948;9.208;2023-04-06T06:10:11;9.43;;;5.70;;
18090;SDS011;9172;49.948;9.208;2023-04-06T06:12:40;8.10;;;5.17;;
18090;SDS011;9172;49.948;9.208;2023-04-06T06:15:10;12.80;;;5.70;;
18090;SDS011;9172;49.948;9.208;2023-04-06T06:17:39;9.20;;;5.33;;
18090;SDS011;9172;49.948;9.208;2023-04-06T06:20:09;6.77;;;4.30;;
18090;SDS011;9172;49.948;9.208;2023-04-06T06:22:39;8.50;;;4.60;;
18090;SDS011;9172;49.948;9.208;2023-04-06T06:25:08;8.77;;;4.97;;
18090;SDS011;9172;49.948;9.208;2023-04-06T06:27:38;7.53;;;4.47;;
18090;SDS011;9172;49.948;9.208;2023-04-06T06:30:15;7.90;;;4.87;;
18090;SDS011;9172;49.948;9.208;2023-04-06T06:32:46;9.67;;;5.70;;
18090;SDS011;9172;49.948;9.208;2023-04-06T06:35:15;8.23;;;5.20;;
18090;SDS011;9172;49.948;9.208;2023-04-06T06:37:43;11.67;;;6.10;;
18090;SDS011;9172;49.948;9.208;2023-04-06T06:40:12;15.17;;;6.57;;
18090;SDS011;9172;49.948;9.208;2023-04-06T06:42:43;10.03;;;6.17;;
18090;SDS011;9172;49.948;9.208;2023-04-06T06:45:12;10.97;;;5.87;;
18090;SDS011;9172;49.948;9.208;2023-04-06T06:47:41;9.10;;;4.90;;
18090;SDS011;9172;49.948;9.208;2023-04-06T06:50:10;13.43;;;6.13;;
18090;SDS011;9172;49.948;9.208;2023-04-06T06:52:39;13.80;;;6.17;;
18090;SDS011;9172;49.948;9.208;2023-04-06T06:55:09;10.47;;;6.43;;
18090;SDS011;9172;49.948;9.208;2023-04-06T06:57:39;9.77;;;5.93;;
18090;SDS011;9172;49.948;9.208;2023-04-06T07:00:10;14.80;;;6.10;;
18090;SDS011;9172;49.948;9.208;2023-04-06T07:02:40;11.03;;;6.17;;
18090;SDS011;9172;49.948;9.208;2023-04-06T07:05:11;11.13;;;5.70;;
18090;SDS011;9172;49.948;9.208;2023-04-06T07:07:40;9.17;;;5.93;;
18090;SDS011;9172;49.948;9.208;2023-04-06T07:10:10;9.63;;;5.70;;
18090;SDS011;9172;49.948;9.208;2023-04-06T07:12:39;13.93;;;6.33;;
18090;SDS011;9172;49.948;9.208;2023-04-06T07:15:08;8.83;;;4.93;;
18090;SDS011;9172;49.948;9.208;2023-04-06T07:17:38;12.43;;;6.20;;
18090;SDS011;9172;49.948;9.208;2023-04-06T07:20:08;9.03;;;5.27;;
18090;SDS011;9172;49.948;9.208;2023-04-06T07:22:38;16.50;;;7.87;;
18090;SDS011;9172;49.948;9.208;2023-04-06T07:25:08;15.10;;;7.33;;
18090;SDS011;9172;49.948;9.208;2023-04-06T07:27:37;13.07;;;5.37;;
18090;SDS011;9172;49.948;9.208;2023-04-06T07:30:08;10.27;;;6.07;;
18090;SDS011;9172;49.948;9.208;2023-04-06T07:32:39;11.53;;;5.00;;
18090;SDS011;9172;49.948;9.208;2023-04-06T07:35:07;8.57;;;5.07;;
18090;SDS011;9172;49.948;9.208;2023-04-06T07:37:36;10.80;;;4.77;;
18090;SDS011;9172;49.948;9.208;2023-04-06T07:40:06;8.60;;;5.03;;
18090;SDS011;9172;49.948;9.208;2023-04-06T07:42:36;8.37;;;4.33;;
18090;SDS011;9172;49.948;9.208;2023-04-06T07:45:06;7.00;;;4.43;;
18090;SDS011;9172;49.948;9.208;2023-04-06T07:47:35;6.87;;;4.33;;
18090;SDS011;9172;49.948;9.208;2023-04-06T07:50:05;11.83;;;4.97;;
18090;SDS011;9172;49.948;9.208;2023-04-06T07:52:35;6.93;;;4.07;;
18090;SDS011;9172;49.948;9.208;2023-04-06T07:55:04;7.73;;;4.00;;
18090;SDS011;9172;49.948;9.208;2023-04-06T07:57:33;7.57;;;4.67;;
18090;SDS011;9172;49.948;9.208;2023-04-06T08:00:03;6.83;;;3.77;;
18090;SDS011;9172;49.948;9.208;2023-04-06T08:02:34;7.67;;;4.40;;
18090;SDS011;9172;49.948;9.208;2023-04-06T08:05:04;7.10;;;3.97;;
18090;SDS011;9172;49.948;9.208;2023-04-06T08:07:34;10.10;;;4.10;;
18090;SDS011;9172;49.948;9.208;2023-04-06T08:10:03;8.40;;;3.97;;
18090;SDS011;9172;49.948;9.208;2023-04-06T08:12:32;9.90;;;4.30;;
18090;SDS011;9172;49.948;9.208;2023-04-06T08:15:02;8.27;;;4.27;;
18090;SDS011;9172;49.948;9.208;2023-04-06T08:17:32;10.37;;;3.93;;
18090;SDS011;9172;49.948;9.208;2023-04-06T08:20:03;7.93;;;4.03;;
18090;SDS011;9172;49.948;9.208;2023-04-06T08:22:32;8.23;;;4.13;;
18090;SDS011;9172;49.948;9.208;2023-04-06T08:25:01;8.13;;;4.03;;
18090;SDS011;9172;49.948;9.208;2023-04-06T08:27:30;7.63;;;4.20;;
18090;SDS011;9172;49.948;9.208;2023-04-06T08:29:59;12.77;;;4.17;;
18090;SDS011;9172;49.948;9.208;2023-04-06T08:32:28;6.23;;;3.70;;
18090;SDS011;9172;49.948;9.208;2023-04-06T08:34:57;7.67;;;3.63;;
18090;SDS011;9172;49.948;9.208;2023-04-06T08:37:26;6.87;;;3.80;;
18090;SDS011;9172;49.948;9.208;2023-04-06T08:39:56;8.47;;;4.17;;
18090;SDS011;9172;49.948;9.208;2023-04-06T08:42:26;9.03;;;3.77;;
18090;SDS011;9172;49.948;9.208;2023-04-06T08:45:05;7.30;;;4.27;;
18090;SDS011;9172;49.948;9.208;2023-04-06T08:47:36;7.37;;;3.73;;
18090;SDS011;9172;49.948;9.208;2023-04-06T08:50:06;7.73;;;3.83;;
18090;SDS011;9172;49.948;9.208;2023-04-06T08:52:37;6.27;;;3.70;;
18090;SDS011;9172;49.948;9.208;2023-04-06T08:55:08;6.23;;;3.23;;
18090;SDS011;9172;49.948;9.208;2023-04-06T08:57:38;6.73;;;4.00;;
18090;SDS011;9172;49.948;9.208;2023-04-06T09:00:09;5.27;;;3.77;;
18090;SDS011;9172;49.948;9.208;2023-04-06T09:02:42;7.93;;;4.47;;
18090;SDS011;9172;49.948;9.208;2023-04-06T09:05:12;7.57;;;4.20;;
18090;SDS011;9172;49.948;9.208;2023-04-06T09:07:44;5.83;;;3.23;;
18090;SDS011;9172;49.948;9.208;2023-04-06T09:10:13;7.70;;;3.77;;
18090;SDS011;9172;49.948;9.208;2023-04-06T09:12:43;7.97;;;4.00;;
18090;SDS011;9172;49.948;9.208;2023-04-06T09:15:18;7.27;;;4.03;;
18090;SDS011;9172;49.948;9.208;2023-04-06T09:17:48;8.30;;;4.70;;
18090;SDS011;9172;49.948;9.208;2023-04-06T09:20:22;12.27;;;4.07;;
18090;SDS011;9172;49.948;9.208;2023-04-06T09:22:52;6.20;;;3.80;;
18090;SDS011;9172;49.948;9.208;2023-04-06T09:25:21;7.20;;;4.10;;
18090;SDS011;9172;49.948;9.208;2023-04-06T09:27:59;7.67;;;3.97;;
18090;SDS011;9172;49.948;9.208;2023-04-06T09:30:29;14.10;;;4.93;;
18090;SDS011;9172;49.948;9.208;2023-04-06T09:32:58;7.57;;;3.50;;
18090;SDS011;9172;49.948;9.208;2023-04-06T09:35:28;8.03;;;4.30;;
18090;SDS011;9172;49.948;9.208;2023-04-06T09:37:58;10.80;;;4.47;;
18090;SDS011;9172;49.948;9.208;2023-04-06T09:40:29;8.10;;;4.20;;
18090;SDS011;9172;49.948;9.208;2023-04-06T09:42:58;9.63;;;4.17;;
18090;SDS011;9172;49.948;9.208;2023-04-06T09:45:31;9.13;;;4.97;;
18090;SDS011;9172;49.948;9.208;2023-04-06T09:48:00;11.17;;;4.60;;
18090;SDS011;9172;49.948;9.208;2023-04-06T09:50:30;13.40;;;4.77;;
18090;SDS011;9172;49.948;9.208;2023-04-06T09:53:00;15.10;;;5.20;;
18090;SDS011;9172;49.948;9.208;2023-04-06T09:55:33;13.90;;;5.67;;
18090;SDS011;9172;49.948;9.208;2023-04-06T09:58:03;10.67;;;4.83;;
18090;SDS011;9172;49.948;9.208;2023-04-06T10:00:34;15.77;;;5.43;;
18090;SDS011;9172;49.948;9.208;2023-04-06T10:03:07;12.93;;;5.23;;
18090;SDS011;9172;49.948;9.208;2023-04-06T10:05:42;12.30;;;5.63;;
18090;SDS011;9172;49.948;9.208;2023-04-06T10:08:13;12.17;;;5.27;;
18090;SDS011;9172;49.948;9.208;2023-04-06T10:10:44;9.83;;;4.83;;
18090;SDS011;9172;49.948;9.208;2023-04-06T10:13:13;11.80;;;4.57;;
18090;SDS011;9172;49.948;9.208;2023-04-06T10:15:42;10.90;;;5.20;;
18090;SDS011;9172;49.948;9.208;2023-04-06T10:18:12;9.87;;;4.93;;
18090;SDS011;9172;49.948;9.208;2023-04-06T10:20:43;9.17;;;4.80;;
18090;SDS011;9172;49.948;9.208;2023-04-06T10:23:19;11.67;;;4.70;;
18090;SDS011;9172;49.948;9.208;2023-04-06T10:25:54;8.73;;;4.17;;
18090;SDS011;9172;49.948;9.208;2023-04-06T10:28:24;7.43;;;4.10;;
18090;SDS011;9172;49.948;9.208;2023-04-06T10:30:57;7.97;;;4.30;;
18090;SDS011;9172;49.948;9.208;2023-04-06T10:33:27;11.27;;;4.77;;
18090;SDS011;9172;49.948;9.208;2023-04-06T10:35:56;8.60;;;4.00;;
18090;SDS011;9172;49.948;9.208;2023-04-06T10:38:43;12.10;;;4.90;;
18090;SDS011;9172;49.948;9.208;2023-04-06T10:41:16;8.20;;;4.47;;
18090;SDS011;9172;49.948;9.208;2023-04-06T10:43:45;7.57;;;3.83;;
18090;SDS011;9172;49.948;9.208;2023-04-06T10:46:15;14.53;;;4.87;;
18090;SDS011;9172;49.948;9.208;2023-04-06T10:48:47;11.43;;;4.90;;
18090;SDS011;9172;49.948;9.208;2023-04-06T10:51:17;9.63;;;4.97;;
18090;SDS011;9172;49.948;9.208;2023-04-06T10:53:48;8.57;;;4.50;;
18090;SDS011;9172;49.948;9.208;2023-04-06T10:56:21;8.43;;;4.57;;
18090;SDS011;9172;49.948;9.208;2023-04-06T10:58:52;8.57;;;4.63;;
18090;SDS011;9172;49.948;9.208;2023-04-06T11:01:23;8.13;;;4.43;;
18090;SDS011;9172;49.948;9.208;2023-04-06T11:03:53;17.47;;;4.63;;
18090;SDS011;9172;49.948;9.208;2023-04-06T11:06:26;17.73;;;5.87;;
18090;SDS011;9172;49.948;9.208;2023-04-06T11:08:57;11.20;;;4.93;;
18090;SDS011;9172;49.948;9.208;2023-04-06T11:11:27;9.60;;;4.90;;
18090;SDS011;9172;49.948;9.208;2023-04-06T11:13:56;11.60;;;5.20;;
18090;SDS011;9172;49.948;9.208;2023-04-06T11:16:26;10.13;;;5.10;;
18090;SDS011;9172;49.948;9.208;2023-04-06T11:18:57;10.53;;;5.37;;
18090;SDS011;9172;49.948;9.208;2023-04-06T11:21:34;13.37;;;5.30;;
18090;SDS011;9172;49.948;9.208;2023-04-06T11:24:07;8.93;;;4.93;;
18090;SDS011;9172;49.948;9.208;2023-04-06T11:26:37;8.10;;;4.40;;
18090;SDS011;9172;49.948;9.208;2023-04-06T11:29:11;9.60;;;5.47;;
18090;SDS011;9172;49.948;9.208;2023-04-06T11:31:41;10.23;;;4.90;;
18090;SDS011;9172;49.948;9.208;2023-04-06T11:34:12;7.40;;;4.30;;
18090;SDS011;9172;49.948;9.208;2023-04-06T11:36:43;14.30;;;5.03;;
18090;SDS011;9172;49.948;9.208;2023-04-06T11:39:17;9.50;;;4.50;;
18090;SDS011;9172;49.948;9.208;2023-04-06T11:41:47;13.17;;;5.27;;
18090;SDS011;9172;49.948;9.208;2023-04-06T11:44:26;9.70;;;5.37;;
18090;SDS011;9172;49.948;9.208;2023-04-06T11:46:56;11.03;;;4.87;;
18090;SDS011;9172;49.948;9.208;2023-04-06T11:49:27;11.60;;;5.07;;
18090;SDS011;9172;49.948;9.208;2023-04-06T11:51:55;9.20;;;4.90;;
18090;SDS011;9172;49.948;9.208;2023-04-06T11:54:32;8.40;;;4.37;;
18090;SDS011;9172;49.948;9.208;2023-04-06T11:57:01;9.23;;;4.70;;
18090;SDS011;9172;49.948;9.208;2023-04-06T11:59:31;10.77;;;5.90;;
18090;SDS011;9172;49.948;9.208;2023-04-06T12:02:01;10.83;;;5.43;;
18090;SDS011;9172;49.948;9.208;2023-04-06T12:04:30;11.20;;;5.50;;
18090;SDS011;9172;49.948;9.208;2023-04-06T12:07:00;10.60;;;5.40;;
18090;SDS011;9172;49.948;9.208;2023-04-06T12:09:30;11.23;;;5.50;;
18090;SDS011;9172;49.948;9.208;2023-04-06T12:12:01;8.90;;;4.93;;
18090;SDS011;9172;49.948;9.208;2023-04-06T12:14:31;9.27;;;4.93;;
18090;SDS011;9172;49.948;9.208;2023-04-06T12:17:01;11.97;;;5.90;;
18090;SDS011;9172;49.948;9.208;2023-04-06T12:19:30;8.97;;;5.07;;
18090;SDS011;9172;49.948;9.208;2023-04-06T12:21:58;8.17;;;4.77;;
18090;SDS011;9172;49.948;9.208;2023-04-06T12:24:27;11.93;;;4.80;;
18090;SDS011;9172;49.948;9.208;2023-04-06T12:26:56;10.80;;;5.43;;
18090;SDS011;9172;49.948;9.208;2023-04-06T12:29:25;10.07;;;5.63;;
18090;SDS011;9172;49.948;9.208;2023-04-06T12:31:54;8.70;;;4.70;;
18090;SDS011;9172;49.948;9.208;2023-04-06T12:34:24;8.43;;;4.87;;
18090;SDS011;9172;49.948;9.208;2023-04-06T12:36:54;8.83;;;4.73;;
18090;SDS011;9172;49.948;9.208;2023-04-06T12:39:31;7.27;;;4.50;;
18090;SDS011;9172;49.948;9.208;2023-04-06T12:42:01;7.27;;;4.47;;
18090;SDS011;9172;49.948;9.208;2023-04-06T12:44:30;9.50;;;5.00;;
18090;SDS011;9172;49.948;9.208;2023-04-06T12:47:00;9.93;;;5.40;;
18090;SDS011;9172;49.948;9.208;2023-04-06T12:49:30;12.23;;;5.93;;
18090;SDS011;9172;49.948;9.208;2023-04-06T12:52:00;13.03;;;6.17;;
18090;SDS011;9172;49.948;9.208;2023-04-06T12:54:30;8.83;;;5.10;;
18090;SDS011;9172;49.948;9.208;2023-04-06T12:56:59;9.83;;;5.27;;
18090;SDS011;9172;49.948;9.208;2023-04-06T12:59:28;9.97;;;5.23;;
18090;SDS011;9172;49.948;9.208;2023-04-06T13:02:00;10.13;;;4.77;;
18090;SDS011;9172;49.948;9.208;2023-04-06T13:04:29;9.83;;;4.97;;
18090;SDS011;9172;49.948;9.208;2023-04-06T13:06:59;8.10;;;4.77;;
18090;SDS011;9172;49.948;9.208;2023-04-06T13:09:29;10.13;;;4.53;;
18090;SDS011;9172;49.948;9.208;2023-04-06T13:11:59;12.13;;;5.57;;
18090;SDS011;9172;49.948;9.208;2023-04-06T13:14:27;9.40;;;4.90;;
18090;SDS011;9172;49.948;9.208;2023-04-06T13:16:57;7.40;;;4.03;;
18090;SDS011;9172;49.948;9.208;2023-04-06T13:19:27;10.67;;;4.87;;
18090;SDS011;9172;49.948;9.208;2023-04-06T13:21:57;8.87;;;4.57;;
18090;SDS011;9172;49.948;9.208;2023-04-06T13:24:26;8.97;;;4.70;;
18090;SDS011;9172;49.948;9.208;2023-04-06T13:26:55;10.90;;;5.30;;
18090;SDS011;9172;49.948;9.208;2023-04-06T13:29:24;11.77;;;5.60;;
18090;SDS011;9172;49.948;9.208;2023-04-06T13:31:54;8.43;;;4.77;;
18090;SDS011;9172;49.948;9.208;2023-04-06T13:34:23;10.90;;;4.90;;
18090;SDS011;9172;49.948;9.208;2023-04-06T13:36:53;7.37;;;4.13;;
18090;SDS011;9172;49.948;9.208;2023-04-06T13:39:22;10.07;;;4.33;;
18090;SDS011;9172;49.948;9.208;2023-04-06T13:41:53;6.83;;;4.27;;
18090;SDS011;9172;49.948;9.208;2023-04-06T13:44:22;7.93;;;4.30;;
18090;SDS011;9172;49.948;9.208;2023-04-06T13:46:52;8.43;;;4.60;;
18090;SDS011;9172;49.948;9.208;2023-04-06T13:49:22;10.67;;;5.00;;
18090;SDS011;9172;49.948;9.208;2023-04-06T13:51:51;10.33;;;4.70;;
18090;SDS011;9172;49.948;9.208;2023-04-06T13:54:22;10.60;;;5.20;;
18090;SDS011;9172;49.948;9.208;2023-04-06T13:56:51;9.90;;;5.13;;
18090;SDS011;9172;49.948;9.208;2023-04-06T13:59:21;11.67;;;4.80;;
18090;SDS011;9172;49.948;9.208;2023-04-06T14:01:49;11.20;;;5.10;;
18090;SDS011;9172;49.948;9.208;2023-04-06T14:04:19;10.27;;;4.90;;
18090;SDS011;9172;49.948;9.208;2023-04-06T14:06:49;9.07;;;4.27;;
18090;SDS011;9172;49.948;9.208;2023-04-06T14:09:17;7.60;;;3.93;;
18090;SDS011;9172;49.948;9.208;2023-04-06T14:11:47;7.37;;;3.83;;
18090;SDS011;9172;49.948;9.208;2023-04-06T14:14:15;6.87;;;4.03;;
18090;SDS011;9172;49.948;9.208;2023-04-06T14:16:46;11.53;;;4.27;;
18090;SDS011;9172;49.948;9.208;2023-04-06T14:19:17;8.73;;;4.33;;
18090;SDS011;9172;49.948;9.208;2023-04-06T14:21:47;6.90;;;3.60;;
18090;SDS011;9172;49.948;9.208;2023-04-06T14:24:17;8.93;;;4.40;;
18090;SDS011;9172;49.948;9.208;2023-04-06T14:26:47;9.30;;;4.03;;
18090;SDS011;9172;49.948;9.208;2023-04-06T14:29:16;16.50;;;4.27;;
18090;SDS011;9172;49.948;9.208;2023-04-06T14:31:47;8.87;;;3.70;;
18090;SDS011;9172;49.948;9.208;2023-04-06T14:34:16;12.33;;;3.53;;
18090;SDS011;9172;49.948;9.208;2023-04-06T14:36:44;9.57;;;3.60;;
18090;SDS011;9172;49.948;9.208;2023-04-06T14:39:13;6.23;;;3.47;;
18090;SDS011;9172;49.948;9.208;2023-04-06T14:41:44;7.80;;;4.20;;
18090;SDS011;9172;49.948;9.208;2023-04-06T14:44:14;6.87;;;3.80;;
18090;SDS011;9172;49.948;9.208;2023-04-06T14:46:43;8.73;;;4.20;;
18090;SDS011;9172;49.948;9.208;2023-04-06T14:49:12;8.17;;;3.43;;
18090;SDS011;9172;49.948;9.208;2023-04-06T14:51:41;7.63;;;4.07;;
18090;SDS011;9172;49.948;9.208;2023-04-06T14:54:09;7.57;;;3.33;;
18090;SDS011;9172;49.948;9.208;2023-04-06T14:56:38;6.93;;;3.30;;
18090;SDS011;9172;49.948;9.208;2023-04-06T14:59:10;6.07;;;3.27;;
18090;SDS011;9172;49.948;9.208;2023-04-06T15:01:39;7.73;;;3.10;;
18090;SDS011;9172;49.948;9.208;2023-04-06T15:04:08;5.60;;;2.83;;
18090;SDS011;9172;49.948;9.208;2023-04-06T15:06:37;4.77;;;2.43;;
18090;SDS011;9172;49.948;9.208;2023-04-06T15:09:10;7.53;;;3.47;;
18090;SDS011;9172;49.948;9.208;2023-04-06T15:12:06;5.30;;;3.00;;
18090;SDS011;9172;49.948;9.208;2023-04-06T15:14:35;4.40;;;2.90;;
18090;SDS011;9172;49.948;9.208;2023-04-06T15:17:03;5.10;;;2.97;;